sensor_id;sensor_type;location;lat;lon;timestamp;temperature;humidity
71184;DHT22;58887;51.980;4.464;2022-12-29T00:01:36;11.65;84.52
71184;DHT22;58887;51.980;4.464;2022-12-29T00:04:03;11.63;84.36
71184;DHT22;58887;51.980;4.464;2022-12-29T00:06:29;11.65;84.35
71184;DHT22;58887;51.980;4.464;2022-12-29T00:08:55;11.68;84.01
71184;DHT22;58887;51.980;4.464;2022-12-29T00:11:24;11.72;84.04
71184;DHT22;58887;51.980;4.464;2022-12-29T00:13:51;11.69;83.86
71184;DHT22;58887;51.980;4.464;2022-12-29T00:16:37;11.75;83.99
71184;DHT22;58887;51.980;4.464;2022-12-29T00:19:04;11.68;83.98
71184;DHT22;58887;51.980;4.464;2022-12-29T00:21:29;11.76;83.61
71184;DHT22;58887;51.980;4.464;2022-12-29T00:24:21;11.68;83.69
71184;DHT22;58887;51.980;4.464;2022-12-29T00:29:43;11.65;83.98
71184;DHT22;58887;51.980;4.464;2022-12-29T00:32:27;11.82;83.34
71184;DHT22;58887;51.980;4.464;2022-12-29T00:35:23;11.72;84.10
71184;DHT22;58887;51.980;4.464;2022-12-29T00:37:50;11.63;84.68
71184;DHT22;58887;51.980;4.464;2022-12-29T00:40:35;11.57;84.85
71184;DHT22;58887;51.980;4.464;2022-12-29T00:43:19;11.57;85.28
71184;DHT22;58887;51.980;4.464;2022-12-29T00:46:03;11.43;86.15
71184;DHT22;58887;51.980;4.464;2022-12-29T00:48:28;11.32;86.54
71184;DHT22;58887;51.980;4.464;2022-12-29T00:51:12;11.34;86.87
71184;DHT22;58887;51.980;4.464;2022-12-29T00:53:38;11.24;87.44
71184;DHT22;58887;51.980;4.464;2022-12-29T00:56:04;11.24;87.49
71184;DHT22;58887;51.980;4.464;2022-12-29T00:58:30;11.25;87.55
71184;DHT22;58887;51.980;4.464;2022-12-29T01:01:07;11.22;87.47
71184;DHT22;58887;51.980;4.464;2022-12-29T01:03:37;11.24;87.54
71184;DHT22;58887;51.980;4.464;2022-12-29T01:06:05;11.32;87.64
71184;DHT22;58887;51.980;4.464;2022-12-29T01:08:31;11.31;87.72
71184;DHT22;58887;51.980;4.464;2022-12-29T01:10:58;11.27;88.22
71184;DHT22;58887;51.980;4.464;2022-12-29T01:13:24;11.27;88.06
71184;DHT22;58887;51.980;4.464;2022-12-29T01:15:53;11.30;87.95
71184;DHT22;58887;51.980;4.464;2022-12-29T01:18:19;11.25;87.87
71184;DHT22;58887;51.980;4.464;2022-12-29T01:20:45;11.39;87.41
71184;DHT22;58887;51.980;4.464;2022-12-29T01:23:10;11.45;87.32
71184;DHT22;58887;51.980;4.464;2022-12-29T01:25:36;11.38;87.30
71184;DHT22;58887;51.980;4.464;2022-12-29T01:28:01;11.38;87.46
71184;DHT22;58887;51.980;4.464;2022-12-29T01:30:27;11.34;87.35
71184;DHT22;58887;51.980;4.464;2022-12-29T01:32:52;11.39;87.34
71184;DHT22;58887;51.980;4.464;2022-12-29T01:35:17;11.25;87.55
71184;DHT22;58887;51.980;4.464;2022-12-29T01:37:43;11.36;87.04
71184;DHT22;58887;51.980;4.464;2022-12-29T01:40:09;11.39;86.81
71184;DHT22;58887;51.980;4.464;2022-12-29T01:42:34;11.36;86.52
71184;DHT22;58887;51.980;4.464;2022-12-29T01:45:03;11.32;86.41
71184;DHT22;58887;51.980;4.464;2022-12-29T01:47:58;11.39;86.05
71184;DHT22;58887;51.980;4.464;2022-12-29T01:50:28;11.43;85.46
71184;DHT22;58887;51.980;4.464;2022-12-29T01:53:00;11.42;85.02
71184;DHT22;58887;51.980;4.464;2022-12-29T01:55:30;11.45;84.84
71184;DHT22;58887;51.980;4.464;2022-12-29T01:58:02;11.41;84.74
71184;DHT22;58887;51.980;4.464;2022-12-29T02:00:29;11.39;84.67
71184;DHT22;58887;51.980;4.464;2022-12-29T02:02:54;11.43;83.98
71184;DHT22;58887;51.980;4.464;2022-12-29T02:05:27;11.46;83.71
71184;DHT22;58887;51.980;4.464;2022-12-29T02:07:53;11.58;83.37
71184;DHT22;58887;51.980;4.464;2022-12-29T02:10:23;11.52;83.05
71184;DHT22;58887;51.980;4.464;2022-12-29T02:12:51;11.58;82.83
71184;DHT22;58887;51.980;4.464;2022-12-29T02:15:23;11.61;82.75
71184;DHT22;58887;51.980;4.464;2022-12-29T02:23:08;11.57;81.89
71184;DHT22;58887;51.980;4.464;2022-12-29T02:25:44;11.57;82.03
71184;DHT22;58887;51.980;4.464;2022-12-29T02:44:51;11.55;80.38
71184;DHT22;58887;51.980;4.464;2022-12-29T02:47:29;11.46;79.94
71184;DHT22;58887;51.980;4.464;2022-12-29T02:50:06;11.49;80.14
71184;DHT22;58887;51.980;4.464;2022-12-29T02:52:59;11.38;79.69
71184;DHT22;58887;51.980;4.464;2022-12-29T02:55:25;11.42;79.55
71184;DHT22;58887;51.980;4.464;2022-12-29T02:58:20;11.38;79.20
71184;DHT22;58887;51.980;4.464;2022-12-29T03:06:55;11.42;78.69
71184;DHT22;58887;51.980;4.464;2022-12-29T03:12:48;11.45;79.30
71184;DHT22;58887;51.980;4.464;2022-12-29T03:15:39;11.43;79.47
71184;DHT22;58887;51.980;4.464;2022-12-29T03:21:48;11.39;79.95
71184;DHT22;58887;51.980;4.464;2022-12-29T03:24:41;11.36;79.92
71184;DHT22;58887;51.980;4.464;2022-12-29T03:27:13;11.36;79.96
71184;DHT22;58887;51.980;4.464;2022-12-29T03:29:47;11.31;80.10
71184;DHT22;58887;51.980;4.464;2022-12-29T03:32:20;11.38;79.69
71184;DHT22;58887;51.980;4.464;2022-12-29T03:34:49;11.38;80.07
71184;DHT22;58887;51.980;4.464;2022-12-29T03:37:19;11.39;79.85
71184;DHT22;58887;51.980;4.464;2022-12-29T03:39:46;11.32;80.09
71184;DHT22;58887;51.980;4.464;2022-12-29T03:42:20;11.30;80.23
71184;DHT22;58887;51.980;4.464;2022-12-29T03:44:47;11.36;80.18
71184;DHT22;58887;51.980;4.464;2022-12-29T03:47:14;11.30;80.21
71184;DHT22;58887;51.980;4.464;2022-12-29T03:49:40;11.28;80.29
71184;DHT22;58887;51.980;4.464;2022-12-29T03:52:06;11.21;80.26
71184;DHT22;58887;51.980;4.464;2022-12-29T03:54:32;11.28;79.36
71184;DHT22;58887;51.980;4.464;2022-12-29T03:56:58;11.24;79.62
71184;DHT22;58887;51.980;4.464;2022-12-29T03:59:23;11.21;79.90
71184;DHT22;58887;51.980;4.464;2022-12-29T04:01:49;11.18;79.26
71184;DHT22;58887;51.980;4.464;2022-12-29T04:04:15;11.12;78.46
71184;DHT22;58887;51.980;4.464;2022-12-29T04:06:41;11.10;78.94
71184;DHT22;58887;51.980;4.464;2022-12-29T04:09:06;11.01;78.68
71184;DHT22;58887;51.980;4.464;2022-12-29T04:11:32;11.12;78.48
71184;DHT22;58887;51.980;4.464;2022-12-29T04:13:57;11.07;78.93
71184;DHT22;58887;51.980;4.464;2022-12-29T04:16:23;10.97;79.45
71184;DHT22;58887;51.980;4.464;2022-12-29T04:18:48;10.81;79.97
71184;DHT22;58887;51.980;4.464;2022-12-29T04:21:14;10.76;80.54
71184;DHT22;58887;51.980;4.464;2022-12-29T04:23:40;10.67;80.92
71184;DHT22;58887;51.980;4.464;2022-12-29T04:26:07;10.66;80.93
71184;DHT22;58887;51.980;4.464;2022-12-29T04:28:34;10.64;80.96
71184;DHT22;58887;51.980;4.464;2022-12-29T04:31:00;10.62;81.27
71184;DHT22;58887;51.980;4.464;2022-12-29T04:33:25;10.57;82.03
71184;DHT22;58887;51.980;4.464;2022-12-29T04:35:51;10.46;82.44
71184;DHT22;58887;51.980;4.464;2022-12-29T04:38:18;10.63;82.19
71184;DHT22;58887;51.980;4.464;2022-12-29T04:40:44;10.55;82.70
71184;DHT22;58887;51.980;4.464;2022-12-29T04:43:10;10.66;82.31
71184;DHT22;58887;51.980;4.464;2022-12-29T04:45:35;10.69;82.17
71184;DHT22;58887;51.980;4.464;2022-12-29T04:48:01;10.70;82.12
71184;DHT22;58887;51.980;4.464;2022-12-29T04:50:27;10.76;81.94
71184;DHT22;58887;51.980;4.464;2022-12-29T04:52:52;10.67;82.01
71184;DHT22;58887;51.980;4.464;2022-12-29T04:55:18;10.64;82.99
71184;DHT22;58887;51.980;4.464;2022-12-29T04:57:43;10.52;84.04
71184;DHT22;58887;51.980;4.464;2022-12-29T05:00:09;10.41;85.06
71184;DHT22;58887;51.980;4.464;2022-12-29T05:02:36;10.39;85.44
71184;DHT22;58887;51.980;4.464;2022-12-29T05:05:01;10.35;85.84
71184;DHT22;58887;51.980;4.464;2022-12-29T05:07:27;10.23;86.30
71184;DHT22;58887;51.980;4.464;2022-12-29T05:09:52;10.18;86.65
71184;DHT22;58887;51.980;4.464;2022-12-29T05:12:18;10.16;86.49
71184;DHT22;58887;51.980;4.464;2022-12-29T05:14:43;10.09;86.46
71184;DHT22;58887;51.980;4.464;2022-12-29T05:17:09;10.15;86.38
71184;DHT22;58887;51.980;4.464;2022-12-29T05:19:34;10.13;86.30
71184;DHT22;58887;51.980;4.464;2022-12-29T05:22:00;10.13;86.48
71184;DHT22;58887;51.980;4.464;2022-12-29T05:24:25;10.08;85.89
71184;DHT22;58887;51.980;4.464;2022-12-29T05:26:51;10.19;85.53
71184;DHT22;58887;51.980;4.464;2022-12-29T05:29:16;10.21;85.23
71184;DHT22;58887;51.980;4.464;2022-12-29T05:31:42;10.15;85.15
71184;DHT22;58887;51.980;4.464;2022-12-29T05:34:10;10.15;84.72
71184;DHT22;58887;51.980;4.464;2022-12-29T05:36:35;10.28;84.25
71184;DHT22;58887;51.980;4.464;2022-12-29T05:39:01;10.23;84.37
71184;DHT22;58887;51.980;4.464;2022-12-29T05:41:26;10.15;84.65
71184;DHT22;58887;51.980;4.464;2022-12-29T05:43:52;10.22;84.62
71184;DHT22;58887;51.980;4.464;2022-12-29T05:46:17;10.22;84.58
71184;DHT22;58887;51.980;4.464;2022-12-29T05:48:43;10.08;85.35
71184;DHT22;58887;51.980;4.464;2022-12-29T05:51:08;10.05;85.85
71184;DHT22;58887;51.980;4.464;2022-12-29T05:53:33;10.02;86.34
71184;DHT22;58887;51.980;4.464;2022-12-29T05:55:59;9.92;87.33
71184;DHT22;58887;51.980;4.464;2022-12-29T05:58:24;9.81;87.86
71184;DHT22;58887;51.980;4.464;2022-12-29T06:00:50;9.77;87.73
71184;DHT22;58887;51.980;4.464;2022-12-29T06:03:16;9.77;87.51
71184;DHT22;58887;51.980;4.464;2022-12-29T06:05:41;9.77;87.07
71184;DHT22;58887;51.980;4.464;2022-12-29T06:08:07;9.73;85.75
71184;DHT22;58887;51.980;4.464;2022-12-29T06:10:32;9.84;85.77
71184;DHT22;58887;51.980;4.464;2022-12-29T06:12:57;9.91;85.21
71184;DHT22;58887;51.980;4.464;2022-12-29T06:15:23;9.91;85.23
71184;DHT22;58887;51.980;4.464;2022-12-29T06:17:48;9.98;84.51
71184;DHT22;58887;51.980;4.464;2022-12-29T06:20:14;10.08;84.10
71184;DHT22;58887;51.980;4.464;2022-12-29T06:22:39;10.05;83.59
71184;DHT22;58887;51.980;4.464;2022-12-29T06:25:05;10.09;82.28
71184;DHT22;58887;51.980;4.464;2022-12-29T06:27:31;10.12;82.58
71184;DHT22;58887;51.980;4.464;2022-12-29T06:29:56;10.08;81.85
71184;DHT22;58887;51.980;4.464;2022-12-29T06:32:22;10.13;80.57
71184;DHT22;58887;51.980;4.464;2022-12-29T06:34:47;10.15;80.52
71184;DHT22;58887;51.980;4.464;2022-12-29T06:37:13;10.08;80.72
71184;DHT22;58887;51.980;4.464;2022-12-29T06:39:39;10.11;80.75
71184;DHT22;58887;51.980;4.464;2022-12-29T06:42:05;10.15;80.22
71184;DHT22;58887;51.980;4.464;2022-12-29T06:44:30;10.15;80.09
71184;DHT22;58887;51.980;4.464;2022-12-29T06:46:56;10.06;80.54
71184;DHT22;58887;51.980;4.464;2022-12-29T06:49:22;9.92;81.13
71184;DHT22;58887;51.980;4.464;2022-12-29T06:51:48;10.01;80.76
71184;DHT22;58887;51.980;4.464;2022-12-29T06:54:13;9.88;81.05
71184;DHT22;58887;51.980;4.464;2022-12-29T06:56:39;10.02;80.23
71184;DHT22;58887;51.980;4.464;2022-12-29T06:59:04;9.98;80.62
71184;DHT22;58887;51.980;4.464;2022-12-29T07:01:30;9.98;80.55
71184;DHT22;58887;51.980;4.464;2022-12-29T07:03:56;9.95;80.57
71184;DHT22;58887;51.980;4.464;2022-12-29T07:06:21;10.08;80.40
71184;DHT22;58887;51.980;4.464;2022-12-29T07:08:47;10.02;80.98
71184;DHT22;58887;51.980;4.464;2022-12-29T07:11:13;9.98;81.13
71184;DHT22;58887;51.980;4.464;2022-12-29T07:13:39;9.99;81.36
71184;DHT22;58887;51.980;4.464;2022-12-29T07:16:08;9.91;81.79
71184;DHT22;58887;51.980;4.464;2022-12-29T07:18:34;10.03;81.67
71184;DHT22;58887;51.980;4.464;2022-12-29T07:21:00;10.11;81.40
71184;DHT22;58887;51.980;4.464;2022-12-29T07:23:26;10.08;81.47
71184;DHT22;58887;51.980;4.464;2022-12-29T07:26:04;10.09;81.24
71184;DHT22;58887;51.980;4.464;2022-12-29T07:28:31;10.21;80.91
71184;DHT22;58887;51.980;4.464;2022-12-29T07:31:00;10.25;80.77
71184;DHT22;58887;51.980;4.464;2022-12-29T07:33:28;10.23;80.76
71184;DHT22;58887;51.980;4.464;2022-12-29T07:35:54;10.28;79.82
71184;DHT22;58887;51.980;4.464;2022-12-29T07:38:20;10.29;79.66
71184;DHT22;58887;51.980;4.464;2022-12-29T07:40:45;10.41;79.08
71184;DHT22;58887;51.980;4.464;2022-12-29T07:43:10;10.42;78.72
71184;DHT22;58887;51.980;4.464;2022-12-29T07:45:36;10.39;78.68
71184;DHT22;58887;51.980;4.464;2022-12-29T07:48:01;10.45;79.10
71184;DHT22;58887;51.980;4.464;2022-12-29T07:50:28;10.45;78.37
71184;DHT22;58887;51.980;4.464;2022-12-29T07:52:53;10.45;78.24
71184;DHT22;58887;51.980;4.464;2022-12-29T07:55:19;10.53;77.80
71184;DHT22;58887;51.980;4.464;2022-12-29T07:57:44;10.55;78.07
71184;DHT22;58887;51.980;4.464;2022-12-29T08:00:10;10.42;78.14
71184;DHT22;58887;51.980;4.464;2022-12-29T08:02:36;10.48;78.32
71184;DHT22;58887;51.980;4.464;2022-12-29T08:05:03;10.52;78.08
71184;DHT22;58887;51.980;4.464;2022-12-29T08:07:28;10.45;78.72
71184;DHT22;58887;51.980;4.464;2022-12-29T08:09:53;10.29;79.81
71184;DHT22;58887;51.980;4.464;2022-12-29T08:12:19;10.06;80.67
71184;DHT22;58887;51.980;4.464;2022-12-29T08:14:44;10.15;80.75
71184;DHT22;58887;51.980;4.464;2022-12-29T08:17:10;10.13;80.39
71184;DHT22;58887;51.980;4.464;2022-12-29T08:19:36;10.11;80.51
71184;DHT22;58887;51.980;4.464;2022-12-29T08:22:02;10.11;81.21
71184;DHT22;58887;51.980;4.464;2022-12-29T08:24:27;10.06;81.48
71184;DHT22;58887;51.980;4.464;2022-12-29T08:26:53;9.98;81.93
71184;DHT22;58887;51.980;4.464;2022-12-29T08:29:19;10.06;82.04
71184;DHT22;58887;51.980;4.464;2022-12-29T08:31:47;10.01;82.72
71184;DHT22;58887;51.980;4.464;2022-12-29T08:34:13;9.99;82.31
71184;DHT22;58887;51.980;4.464;2022-12-29T08:36:38;10.06;82.25
71184;DHT22;58887;51.980;4.464;2022-12-29T08:39:04;9.95;83.05
71184;DHT22;58887;51.980;4.464;2022-12-29T08:41:30;9.87;83.86
71184;DHT22;58887;51.980;4.464;2022-12-29T08:43:56;9.70;85.96
71184;DHT22;58887;51.980;4.464;2022-12-29T08:46:21;9.57;86.49
71184;DHT22;58887;51.980;4.464;2022-12-29T08:48:47;9.55;86.82
71184;DHT22;58887;51.980;4.464;2022-12-29T08:51:13;9.46;87.73
71184;DHT22;58887;51.980;4.464;2022-12-29T08:53:39;9.44;88.15
71184;DHT22;58887;51.980;4.464;2022-12-29T08:56:04;9.42;88.12
71184;DHT22;58887;51.980;4.464;2022-12-29T08:58:30;9.33;87.93
71184;DHT22;58887;51.980;4.464;2022-12-29T09:00:57;9.37;88.11
71184;DHT22;58887;51.980;4.464;2022-12-29T09:03:24;9.40;88.25
71184;DHT22;58887;51.980;4.464;2022-12-29T09:05:51;9.47;88.35
71184;DHT22;58887;51.980;4.464;2022-12-29T09:08:17;9.48;88.36
71184;DHT22;58887;51.980;4.464;2022-12-29T09:10:43;9.46;88.17
71184;DHT22;58887;51.980;4.464;2022-12-29T09:13:10;9.42;88.15
71184;DHT22;58887;51.980;4.464;2022-12-29T09:15:35;9.47;88.24
71184;DHT22;58887;51.980;4.464;2022-12-29T09:18:01;9.46;88.13
71184;DHT22;58887;51.980;4.464;2022-12-29T09:20:27;9.51;88.33
71184;DHT22;58887;51.980;4.464;2022-12-29T09:22:52;9.48;88.20
71184;DHT22;58887;51.980;4.464;2022-12-29T09:25:18;9.61;88.02
71184;DHT22;58887;51.980;4.464;2022-12-29T09:27:43;9.61;88.07
71184;DHT22;58887;51.980;4.464;2022-12-29T09:30:11;9.58;88.53
71184;DHT22;58887;51.980;4.464;2022-12-29T09:32:37;9.65;87.98
71184;DHT22;58887;51.980;4.464;2022-12-29T09:35:03;9.70;88.15
71184;DHT22;58887;51.980;4.464;2022-12-29T09:37:29;9.74;87.77
71184;DHT22;58887;51.980;4.464;2022-12-29T09:39:55;9.81;87.82
71184;DHT22;58887;51.980;4.464;2022-12-29T09:42:30;9.85;87.82
71184;DHT22;58887;51.980;4.464;2022-12-29T09:45:16;9.78;87.78
71184;DHT22;58887;51.980;4.464;2022-12-29T09:47:45;9.91;87.50
71184;DHT22;58887;51.980;4.464;2022-12-29T09:55:38;10.08;86.94
71184;DHT22;58887;51.980;4.464;2022-12-29T09:58:29;10.05;87.07
71184;DHT22;58887;51.980;4.464;2022-12-29T10:01:08;10.08;86.98
71184;DHT22;58887;51.980;4.464;2022-12-29T10:03:51;10.09;86.73
71184;DHT22;58887;51.980;4.464;2022-12-29T10:15:26;10.31;86.37
71184;DHT22;58887;51.980;4.464;2022-12-29T10:20:33;10.49;85.68
71184;DHT22;58887;51.980;4.464;2022-12-29T10:25:34;10.67;84.91
71184;DHT22;58887;51.980;4.464;2022-12-29T10:28:10;10.62;84.89
71184;DHT22;58887;51.980;4.464;2022-12-29T10:30:41;10.55;84.84
71184;DHT22;58887;51.980;4.464;2022-12-29T10:33:15;10.57;84.45
71184;DHT22;58887;51.980;4.464;2022-12-29T10:35:44;10.66;83.96
71184;DHT22;58887;51.980;4.464;2022-12-29T10:40:58;10.94;82.73
71184;DHT22;58887;51.980;4.464;2022-12-29T10:43:31;10.87;82.88
71184;DHT22;58887;51.980;4.464;2022-12-29T10:46:04;10.89;82.62
71184;DHT22;58887;51.980;4.464;2022-12-29T10:48:33;10.85;82.23
71184;DHT22;58887;51.980;4.464;2022-12-29T10:51:04;10.79;82.43
71184;DHT22;58887;51.980;4.464;2022-12-29T10:53:40;11.21;81.59
71184;DHT22;58887;51.980;4.464;2022-12-29T10:56:33;11.55;80.17
71184;DHT22;58887;51.980;4.464;2022-12-29T10:59:12;11.66;80.46
71184;DHT22;58887;51.980;4.464;2022-12-29T11:01:52;12.17;78.43
71184;DHT22;58887;51.980;4.464;2022-12-29T11:04:23;12.49;77.30
71184;DHT22;58887;51.980;4.464;2022-12-29T11:06:51;12.09;77.07
71184;DHT22;58887;51.980;4.464;2022-12-29T11:09:24;11.22;80.57
71184;DHT22;58887;51.980;4.464;2022-12-29T11:11:52;11.08;79.81
71184;DHT22;58887;51.980;4.464;2022-12-29T11:14:20;10.94;80.62
71184;DHT22;58887;51.980;4.464;2022-12-29T11:16:57;10.79;81.47
71184;DHT22;58887;51.980;4.464;2022-12-29T11:19:27;10.62;81.98
71184;DHT22;58887;51.980;4.464;2022-12-29T11:21:53;10.60;82.57
71184;DHT22;58887;51.980;4.464;2022-12-29T11:24:24;10.66;82.41
71184;DHT22;58887;51.980;4.464;2022-12-29T11:26:53;10.70;82.00
71184;DHT22;58887;51.980;4.464;2022-12-29T11:29:37;10.76;82.51
71184;DHT22;58887;51.980;4.464;2022-12-29T11:32:24;10.96;80.95
71184;DHT22;58887;51.980;4.464;2022-12-29T11:34:50;10.90;80.66
71184;DHT22;58887;51.980;4.464;2022-12-29T11:37:19;10.83;79.99
71184;DHT22;58887;51.980;4.464;2022-12-29T11:42:41;11.18;76.97
71184;DHT22;58887;51.980;4.464;2022-12-29T11:45:18;11.18;77.56
71184;DHT22;58887;51.980;4.464;2022-12-29T11:47:56;10.97;78.95
71184;DHT22;58887;51.980;4.464;2022-12-29T11:50:31;10.87;79.60
71184;DHT22;58887;51.980;4.464;2022-12-29T11:53:01;10.90;80.11
71184;DHT22;58887;51.980;4.464;2022-12-29T11:55:30;11.03;80.43
71184;DHT22;58887;51.980;4.464;2022-12-29T11:57:59;10.96;80.52
71184;DHT22;58887;51.980;4.464;2022-12-29T12:00:29;11.00;80.54
71184;DHT22;58887;51.980;4.464;2022-12-29T12:05:41;11.21;79.98
71184;DHT22;58887;51.980;4.464;2022-12-29T12:11:25;11.10;78.89
71184;DHT22;58887;51.980;4.464;2022-12-29T12:16:53;11.15;79.13
71184;DHT22;58887;51.980;4.464;2022-12-29T12:19:43;11.08;79.11
71184;DHT22;58887;51.980;4.464;2022-12-29T12:22:26;11.18;78.53
71184;DHT22;58887;51.980;4.464;2022-12-29T12:27:39;11.22;77.51
71184;DHT22;58887;51.980;4.464;2022-12-29T12:30:18;11.39;76.43
71184;DHT22;58887;51.980;4.464;2022-12-29T12:35:49;11.31;76.11
71184;DHT22;58887;51.980;4.464;2022-12-29T12:46:55;11.25;78.40
71184;DHT22;58887;51.980;4.464;2022-12-29T12:52:42;11.18;78.43
71184;DHT22;58887;51.980;4.464;2022-12-29T13:01:05;11.12;78.38
71184;DHT22;58887;51.980;4.464;2022-12-29T13:04:00;11.14;78.45
71184;DHT22;58887;51.980;4.464;2022-12-29T13:06:35;11.03;78.13
71184;DHT22;58887;51.980;4.464;2022-12-29T13:14:43;11.04;78.88
71184;DHT22;58887;51.980;4.464;2022-12-29T13:25:49;11.10;78.82
71184;DHT22;58887;51.980;4.464;2022-12-29T13:31:11;11.04;78.37
71184;DHT22;58887;51.980;4.464;2022-12-29T13:33:59;11.03;79.01
71184;DHT22;58887;51.980;4.464;2022-12-29T13:36:34;10.90;80.32
71184;DHT22;58887;51.980;4.464;2022-12-29T13:39:13;10.42;83.42
71184;DHT22;58887;51.980;4.464;2022-12-29T13:41:46;10.23;84.36
71184;DHT22;58887;51.980;4.464;2022-12-29T13:44:22;10.02;85.25
71184;DHT22;58887;51.980;4.464;2022-12-29T13:46:49;9.92;85.68
71184;DHT22;58887;51.980;4.464;2022-12-29T13:49:20;9.57;86.74
71184;DHT22;58887;51.980;4.464;2022-12-29T13:51:53;9.50;85.88
71184;DHT22;58887;51.980;4.464;2022-12-29T13:54:28;9.48;86.39
71184;DHT22;58887;51.980;4.464;2022-12-29T13:57:41;9.60;86.36
71184;DHT22;58887;51.980;4.464;2022-12-29T13:59:54;9.69;86.66
71184;DHT22;58887;51.980;4.464;2022-12-29T14:07:48;9.81;86.32
71184;DHT22;58887;51.980;4.464;2022-12-29T14:10:36;9.91;86.12
71184;DHT22;58887;51.980;4.464;2022-12-29T14:13:14;9.88;86.04
71184;DHT22;58887;51.980;4.464;2022-12-29T14:15:44;9.91;85.30
71184;DHT22;58887;51.980;4.464;2022-12-29T14:18:18;10.01;85.57
71184;DHT22;58887;51.980;4.464;2022-12-29T14:23:44;10.02;84.90
71184;DHT22;58887;51.980;4.464;2022-12-29T14:26:14;9.99;84.91
71184;DHT22;58887;51.980;4.464;2022-12-29T14:28:48;9.99;84.57
71184;DHT22;58887;51.980;4.464;2022-12-29T14:39:00;10.06;84.76
71184;DHT22;58887;51.980;4.464;2022-12-29T14:41:39;10.18;84.27
71184;DHT22;58887;51.980;4.464;2022-12-29T14:47:05;10.13;83.51
71184;DHT22;58887;51.980;4.464;2022-12-29T14:49:40;10.11;83.66
71184;DHT22;58887;51.980;4.464;2022-12-29T14:54:54;10.15;83.80
71184;DHT22;58887;51.980;4.464;2022-12-29T14:57:27;10.12;83.48
71184;DHT22;58887;51.980;4.464;2022-12-29T15:02:40;10.15;83.32
71184;DHT22;58887;51.980;4.464;2022-12-29T15:05:26;10.11;83.11
71184;DHT22;58887;51.980;4.464;2022-12-29T15:07:56;9.98;83.90
71184;DHT22;58887;51.980;4.464;2022-12-29T15:10:24;9.94;84.00
71184;DHT22;58887;51.980;4.464;2022-12-29T15:12:55;9.94;83.65
71184;DHT22;58887;51.980;4.464;2022-12-29T15:15:27;9.98;83.30
71184;DHT22;58887;51.980;4.464;2022-12-29T15:17:55;9.94;83.48
71184;DHT22;58887;51.980;4.464;2022-12-29T15:20:27;9.97;83.38
71184;DHT22;58887;51.980;4.464;2022-12-29T15:23:02;10.05;82.43
71184;DHT22;58887;51.980;4.464;2022-12-29T15:25:28;9.98;82.72
71184;DHT22;58887;51.980;4.464;2022-12-29T15:28:00;9.98;82.54
71184;DHT22;58887;51.980;4.464;2022-12-29T15:30:27;9.97;82.08
71184;DHT22;58887;51.980;4.464;2022-12-29T15:32:52;9.95;82.10
71184;DHT22;58887;51.980;4.464;2022-12-29T15:35:36;9.87;82.45
71184;DHT22;58887;51.980;4.464;2022-12-29T15:38:19;9.81;82.40
71184;DHT22;58887;51.980;4.464;2022-12-29T15:40:46;9.78;82.22
71184;DHT22;58887;51.980;4.464;2022-12-29T15:43:33;9.78;82.23
71184;DHT22;58887;51.980;4.464;2022-12-29T15:46:02;9.70;82.30
71184;DHT22;58887;51.980;4.464;2022-12-29T15:48:29;9.65;81.97
71184;DHT22;58887;51.980;4.464;2022-12-29T15:50:55;9.57;82.13
71184;DHT22;58887;51.980;4.464;2022-12-29T15:53:28;9.51;81.85
71184;DHT22;58887;51.980;4.464;2022-12-29T15:56:01;9.50;82.11
71184;DHT22;58887;51.980;4.464;2022-12-29T15:58:31;9.39;82.38
71184;DHT22;58887;51.980;4.464;2022-12-29T16:01:04;9.54;81.54
71184;DHT22;58887;51.980;4.464;2022-12-29T16:03:33;9.43;81.42
71184;DHT22;58887;51.980;4.464;2022-12-29T16:14:18;9.42;80.99
71184;DHT22;58887;51.980;4.464;2022-12-29T16:16:46;9.42;80.81
71184;DHT22;58887;51.980;4.464;2022-12-29T16:19:27;9.46;80.76
71184;DHT22;58887;51.980;4.464;2022-12-29T16:21:54;9.46;80.69
71184;DHT22;58887;51.980;4.464;2022-12-29T16:24:26;9.36;80.85
71184;DHT22;58887;51.980;4.464;2022-12-29T16:27:13;9.37;81.01
71184;DHT22;58887;51.980;4.464;2022-12-29T16:29:49;9.37;80.83
71184;DHT22;58887;51.980;4.464;2022-12-29T16:32:47;9.34;80.96
71184;DHT22;58887;51.980;4.464;2022-12-29T16:38:18;9.29;80.87
71184;DHT22;58887;51.980;4.464;2022-12-29T16:40:58;9.27;81.23
71184;DHT22;58887;51.980;4.464;2022-12-29T16:43:26;9.22;80.83
71184;DHT22;58887;51.980;4.464;2022-12-29T16:48:20;9.32;80.38
71184;DHT22;58887;51.980;4.464;2022-12-29T16:50:48;9.24;80.73
71184;DHT22;58887;51.980;4.464;2022-12-29T16:53:25;9.20;80.58
71184;DHT22;58887;51.980;4.464;2022-12-29T16:55:54;9.18;80.28
71184;DHT22;58887;51.980;4.464;2022-12-29T16:58:26;9.09;80.28
71184;DHT22;58887;51.980;4.464;2022-12-29T17:00:59;9.09;80.22
71184;DHT22;58887;51.980;4.464;2022-12-29T17:03:37;9.01;80.33
71184;DHT22;58887;51.980;4.464;2022-12-29T17:06:03;9.03;80.18
71184;DHT22;58887;51.980;4.464;2022-12-29T17:08:40;9.08;79.92
71184;DHT22;58887;51.980;4.464;2022-12-29T17:14:02;8.89;79.70
71184;DHT22;58887;51.980;4.464;2022-12-29T17:16:27;8.98;79.77
71184;DHT22;58887;51.980;4.464;2022-12-29T17:18:53;8.99;79.65
71184;DHT22;58887;51.980;4.464;2022-12-29T17:21:18;8.99;79.41
71184;DHT22;58887;51.980;4.464;2022-12-29T17:23:44;8.96;79.60
71184;DHT22;58887;51.980;4.464;2022-12-29T17:26:11;9.01;79.52
71184;DHT22;58887;51.980;4.464;2022-12-29T17:28:37;8.91;79.77
71184;DHT22;58887;51.980;4.464;2022-12-29T17:31:05;8.91;79.64
71184;DHT22;58887;51.980;4.464;2022-12-29T17:33:36;8.88;79.77
71184;DHT22;58887;51.980;4.464;2022-12-29T17:36:02;8.79;80.04
71184;DHT22;58887;51.980;4.464;2022-12-29T17:38:30;8.75;80.32
71184;DHT22;58887;51.980;4.464;2022-12-29T17:40:57;8.65;80.42
71184;DHT22;58887;51.980;4.464;2022-12-29T17:43:23;8.61;80.50
71184;DHT22;58887;51.980;4.464;2022-12-29T17:45:55;8.71;80.10
71184;DHT22;58887;51.980;4.464;2022-12-29T17:48:21;8.75;79.89
71184;DHT22;58887;51.980;4.464;2022-12-29T17:50:50;8.68;80.27
71184;DHT22;58887;51.980;4.464;2022-12-29T17:53:22;8.72;80.32
71184;DHT22;58887;51.980;4.464;2022-12-29T17:55:48;8.67;80.21
71184;DHT22;58887;51.980;4.464;2022-12-29T18:00:45;8.64;80.64
71184;DHT22;58887;51.980;4.464;2022-12-29T18:03:23;8.58;80.87
71184;DHT22;58887;51.980;4.464;2022-12-29T18:05:50;8.60;80.82
71184;DHT22;58887;51.980;4.464;2022-12-29T18:08:15;8.60;80.77
71184;DHT22;58887;51.980;4.464;2022-12-29T18:10:41;8.51;81.17
71184;DHT22;58887;51.980;4.464;2022-12-29T18:15:48;8.60;81.18
71184;DHT22;58887;51.980;4.464;2022-12-29T18:18:20;8.58;81.06
71184;DHT22;58887;51.980;4.464;2022-12-29T18:20:47;8.67;80.79
71184;DHT22;58887;51.980;4.464;2022-12-29T18:23:22;8.64;80.83
71184;DHT22;58887;51.980;4.464;2022-12-29T18:25:53;8.58;81.16
71184;DHT22;58887;51.980;4.464;2022-12-29T18:28:20;8.62;80.84
71184;DHT22;58887;51.980;4.464;2022-12-29T18:30:46;8.72;80.65